sensor_id;sensor_type;location;lat;lon;timestamp;temperature;humidity
23637;DHT22;11995;50.842;4.456;2022-12-17T00:02:42;-2.30;99.90
23637;DHT22;11995;50.842;4.456;2022-12-17T00:05:28;-2.30;99.90
23637;DHT22;11995;50.842;4.456;2022-12-17T00:08:13;-2.40;99.90
23637;DHT22;11995;50.842;4.456;2022-12-17T00:10:58;-2.40;99.90
23637;DHT22;11995;50.842;4.456;2022-12-17T00:13:45;-2.40;99.90
23637;DHT22;11995;50.842;4.456;2022-12-17T00:16:30;-2.40;99.90
23637;DHT22;11995;50.842;4.456;2022-12-17T00:19:15;-2.40;99.90
23637;DHT22;11995;50.842;4.456;2022-12-17T00:22:01;-2.40;99.90
23637;DHT22;11995;50.842;4.456;2022-12-17T00:24:46;-2.50;99.90
23637;DHT22;11995;50.842;4.456;2022-12-17T00:27:34;-2.50;99.90
23637;DHT22;11995;50.842;4.456;2022-12-17T00:30:19;-2.50;99.90
23637;DHT22;11995;50.842;4.456;2022-12-17T00:33:04;-2.50;99.90
23637;DHT22;11995;50.842;4.456;2022-12-17T00:35:52;-2.50;99.90
23637;DHT22;11995;50.842;4.456;2022-12-17T00:38:38;-2.60;99.90
23637;DHT22;11995;50.842;4.456;2022-12-17T00:41:24;-2.60;99.90
23637;DHT22;11995;50.842;4.456;2022-12-17T00:44:10;-2.60;99.90
23637;DHT22;11995;50.842;4.456;2022-12-17T00:46:55;-2.60;99.90
23637;DHT22;11995;50.842;4.456;2022-12-17T00:49:44;-2.60;99.90
23637;DHT22;11995;50.842;4.456;2022-12-17T00:52:30;-2.60;99.90
23637;DHT22;11995;50.842;4.456;2022-12-17T00:55:15;-2.60;99.90
23637;DHT22;11995;50.842;4.456;2022-12-17T00:58:01;-2.60;99.90
23637;DHT22;11995;50.842;4.456;2022-12-17T01:00:46;-2.60;99.90
23637;DHT22;11995;50.842;4.456;2022-12-17T01:03:33;-2.50;99.90
23637;DHT22;11995;50.842;4.456;2022-12-17T01:06:18;-2.50;99.90
23637;DHT22;11995;50.842;4.456;2022-12-17T01:09:04;-2.50;99.90
23637;DHT22;11995;50.842;4.456;2022-12-17T01:11:50;-2.60;99.90
23637;DHT22;11995;50.842;4.456;2022-12-17T01:14:35;-2.60;99.90
23637;DHT22;11995;50.842;4.456;2022-12-17T01:17:21;-2.60;99.90
23637;DHT22;11995;50.842;4.456;2022-12-17T01:20:07;-2.60;99.90
23637;DHT22;11995;50.842;4.456;2022-12-17T01:22:52;-2.60;99.90
23637;DHT22;11995;50.842;4.456;2022-12-17T01:25:39;-2.70;99.90
23637;DHT22;11995;50.842;4.456;2022-12-17T01:28:25;-2.70;99.90
23637;DHT22;11995;50.842;4.456;2022-12-17T01:31:11;-2.70;99.90
23637;DHT22;11995;50.842;4.456;2022-12-17T01:33:56;-2.80;99.90
23637;DHT22;11995;50.842;4.456;2022-12-17T01:36:41;-2.80;99.90
23637;DHT22;11995;50.842;4.456;2022-12-17T01:39:27;-2.80;99.90
23637;DHT22;11995;50.842;4.456;2022-12-17T01:42:12;-2.80;99.90
23637;DHT22;11995;50.842;4.456;2022-12-17T01:44:57;-2.80;99.90
23637;DHT22;11995;50.842;4.456;2022-12-17T01:47:56;-2.80;99.90
23637;DHT22;11995;50.842;4.456;2022-12-17T01:50:43;-2.80;99.90
23637;DHT22;11995;50.842;4.456;2022-12-17T01:53:32;-2.90;99.90
23637;DHT22;11995;50.842;4.456;2022-12-17T01:56:18;-3.00;99.90
23637;DHT22;11995;50.842;4.456;2022-12-17T01:59:05;-3.00;99.90
23637;DHT22;11995;50.842;4.456;2022-12-17T02:01:52;-3.00;99.90
23637;DHT22;11995;50.842;4.456;2022-12-17T02:04:39;-3.00;99.90
23637;DHT22;11995;50.842;4.456;2022-12-17T02:07:29;-3.00;99.90
23637;DHT22;11995;50.842;4.456;2022-12-17T02:13:09;-3.10;99.90
23637;DHT22;11995;50.842;4.456;2022-12-17T02:15:57;-3.10;99.90
23637;DHT22;11995;50.842;4.456;2022-12-17T02:18:46;-3.10;99.90
23637;DHT22;11995;50.842;4.456;2022-12-17T02:21:32;-3.10;99.90
23637;DHT22;11995;50.842;4.456;2022-12-17T02:24:38;-3.10;99.90
23637;DHT22;11995;50.842;4.456;2022-12-17T02:27:23;-3.10;99.90
23637;DHT22;11995;50.842;4.456;2022-12-17T02:30:10;-3.20;99.90
23637;DHT22;11995;50.842;4.456;2022-12-17T02:32:55;-3.20;99.90
23637;DHT22;11995;50.842;4.456;2022-12-17T02:35:46;-3.20;99.90
23637;DHT22;11995;50.842;4.456;2022-12-17T02:38:31;-3.30;99.90
23637;DHT22;11995;50.842;4.456;2022-12-17T02:41:19;-3.20;99.90
23637;DHT22;11995;50.842;4.456;2022-12-17T02:44:07;-3.10;99.90
23637;DHT22;11995;50.842;4.456;2022-12-17T02:46:54;-3.20;99.90
23637;DHT22;11995;50.842;4.456;2022-12-17T02:49:41;-3.20;99.90
23637;DHT22;11995;50.842;4.456;2022-12-17T02:52:30;-3.20;99.90
23637;DHT22;11995;50.842;4.456;2022-12-17T02:55:17;-3.10;99.90
23637;DHT22;11995;50.842;4.456;2022-12-17T02:58:04;-3.10;99.90
23637;DHT22;11995;50.842;4.456;2022-12-17T03:00:49;-3.20;99.90
23637;DHT22;11995;50.842;4.456;2022-12-17T03:03:36;-3.30;99.90
23637;DHT22;11995;50.842;4.456;2022-12-17T03:06:21;-3.30;99.90
23637;DHT22;11995;50.842;4.456;2022-12-17T03:09:07;-3.20;99.90
23637;DHT22;11995;50.842;4.456;2022-12-17T03:11:52;-3.30;99.90
23637;DHT22;11995;50.842;4.456;2022-12-17T03:14:38;-3.30;99.90
23637;DHT22;11995;50.842;4.456;2022-12-17T03:17:23;-3.20;99.90
23637;DHT22;11995;50.842;4.456;2022-12-17T03:20:09;-3.20;99.90
23637;DHT22;11995;50.842;4.456;2022-12-17T03:23:03;-3.20;99.90
23637;DHT22;11995;50.842;4.456;2022-12-17T03:25:49;-3.10;99.90
23637;DHT22;11995;50.842;4.456;2022-12-17T03:28:35;-3.20;99.90
23637;DHT22;11995;50.842;4.456;2022-12-17T03:31:21;-3.20;99.90
23637;DHT22;11995;50.842;4.456;2022-12-17T03:34:06;-3.10;99.90
23637;DHT22;11995;50.842;4.456;2022-12-17T03:36:52;-3.00;99.90
23637;DHT22;11995;50.842;4.456;2022-12-17T03:39:37;-3.10;99.90
23637;DHT22;11995;50.842;4.456;2022-12-17T03:42:23;-3.10;99.90
23637;DHT22;11995;50.842;4.456;2022-12-17T03:45:09;-3.10;99.90
23637;DHT22;11995;50.842;4.456;2022-12-17T03:48:09;-3.10;99.90
23637;DHT22;11995;50.842;4.456;2022-12-17T03:50:55;-3.20;99.90
23637;DHT22;11995;50.842;4.456;2022-12-17T03:53:42;-3.20;99.90
23637;DHT22;11995;50.842;4.456;2022-12-17T03:56:16;-3.20;99.90
23637;DHT22;11995;50.842;4.456;2022-12-17T03:59:02;-3.20;99.90
23637;DHT22;11995;50.842;4.456;2022-12-17T04:01:47;-3.20;99.90
23637;DHT22;11995;50.842;4.456;2022-12-17T04:04:32;-3.20;99.90
23637;DHT22;11995;50.842;4.456;2022-12-17T04:07:18;-3.30;99.90
23637;DHT22;11995;50.842;4.456;2022-12-17T04:10:03;-3.30;99.90
23637;DHT22;11995;50.842;4.456;2022-12-17T04:12:49;-3.30;99.90
23637;DHT22;11995;50.842;4.456;2022-12-17T04:15:35;-3.40;99.90
23637;DHT22;11995;50.842;4.456;2022-12-17T04:18:20;-3.40;99.90
23637;DHT22;11995;50.842;4.456;2022-12-17T04:21:06;-3.40;99.90
23637;DHT22;11995;50.842;4.456;2022-12-17T04:23:52;-3.40;99.90
23637;DHT22;11995;50.842;4.456;2022-12-17T04:26:38;-3.40;99.90
23637;DHT22;11995;50.842;4.456;2022-12-17T04:29:24;-3.40;99.90
23637;DHT22;11995;50.842;4.456;2022-12-17T04:32:08;-3.40;99.90
23637;DHT22;11995;50.842;4.456;2022-12-17T04:34:54;-3.40;99.90
23637;DHT22;11995;50.842;4.456;2022-12-17T04:37:39;-3.50;99.90
23637;DHT22;11995;50.842;4.456;2022-12-17T04:40:25;-3.50;99.90
23637;DHT22;11995;50.842;4.456;2022-12-17T04:43:11;-3.50;99.90
23637;DHT22;11995;50.842;4.456;2022-12-17T04:45:57;-3.50;99.90
23637;DHT22;11995;50.842;4.456;2022-12-17T04:48:43;-3.50;99.90
23637;DHT22;11995;50.842;4.456;2022-12-17T04:51:29;-3.50;99.90
23637;DHT22;11995;50.842;4.456;2022-12-17T04:54:15;-3.50;99.90
23637;DHT22;11995;50.842;4.456;2022-12-17T04:57:00;-3.50;99.90
23637;DHT22;11995;50.842;4.456;2022-12-17T04:59:45;-3.50;99.90
23637;DHT22;11995;50.842;4.456;2022-12-17T05:02:31;-3.50;99.90
23637;DHT22;11995;50.842;4.456;2022-12-17T05:05:19;-3.60;99.90
23637;DHT22;11995;50.842;4.456;2022-12-17T05:08:05;-3.70;99.90
23637;DHT22;11995;50.842;4.456;2022-12-17T05:10:51;-3.70;99.90
23637;DHT22;11995;50.842;4.456;2022-12-17T05:13:36;-3.60;99.90
23637;DHT22;11995;50.842;4.456;2022-12-17T05:16:21;-3.70;99.90
23637;DHT22;11995;50.842;4.456;2022-12-17T05:19:06;-3.70;99.90
23637;DHT22;11995;50.842;4.456;2022-12-17T05:21:53;-3.80;99.90
23637;DHT22;11995;50.842;4.456;2022-12-17T05:24:39;-3.80;99.90
23637;DHT22;11995;50.842;4.456;2022-12-17T05:27:24;-3.90;99.90
23637;DHT22;11995;50.842;4.456;2022-12-17T05:30:10;-3.80;99.90
23637;DHT22;11995;50.842;4.456;2022-12-17T05:33:01;-3.80;99.90
23637;DHT22;11995;50.842;4.456;2022-12-17T05:35:46;-3.80;99.90
23637;DHT22;11995;50.842;4.456;2022-12-17T05:38:33;-3.70;99.90
23637;DHT22;11995;50.842;4.456;2022-12-17T05:41:19;-3.80;99.90
23637;DHT22;11995;50.842;4.456;2022-12-17T05:44:03;-3.80;99.90
23637;DHT22;11995;50.842;4.456;2022-12-17T05:46:50;-3.80;99.90
23637;DHT22;11995;50.842;4.456;2022-12-17T05:49:35;-3.80;99.90
23637;DHT22;11995;50.842;4.456;2022-12-17T05:52:21;-3.80;99.90
23637;DHT22;11995;50.842;4.456;2022-12-17T05:55:07;-3.90;99.90
23637;DHT22;11995;50.842;4.456;2022-12-17T05:58:01;-3.90;99.90
23637;DHT22;11995;50.842;4.456;2022-12-17T06:00:46;-3.90;99.90
23637;DHT22;11995;50.842;4.456;2022-12-17T06:03:32;-4.00;99.90
23637;DHT22;11995;50.842;4.456;2022-12-17T06:06:18;-4.00;99.90
23637;DHT22;11995;50.842;4.456;2022-12-17T06:09:03;-4.00;99.90
23637;DHT22;11995;50.842;4.456;2022-12-17T06:11:49;-3.90;99.90
23637;DHT22;11995;50.842;4.456;2022-12-17T06:14:34;-3.90;99.90
23637;DHT22;11995;50.842;4.456;2022-12-17T06:17:20;-4.00;99.90
23637;DHT22;11995;50.842;4.456;2022-12-17T06:20:05;-3.90;99.90
23637;DHT22;11995;50.842;4.456;2022-12-17T06:23:09;-4.00;99.90
23637;DHT22;11995;50.842;4.456;2022-12-17T06:25:56;-4.00;99.90
23637;DHT22;11995;50.842;4.456;2022-12-17T06:28:42;-4.10;99.90
23637;DHT22;11995;50.842;4.456;2022-12-17T06:31:28;-4.20;99.90
23637;DHT22;11995;50.842;4.456;2022-12-17T06:34:13;-4.10;99.90
23637;DHT22;11995;50.842;4.456;2022-12-17T06:36:59;-4.10;99.90
23637;DHT22;11995;50.842;4.456;2022-12-17T06:39:44;-4.00;99.90
23637;DHT22;11995;50.842;4.456;2022-12-17T06:42:30;-3.90;99.90
23637;DHT22;11995;50.842;4.456;2022-12-17T06:45:16;-4.00;99.90
23637;DHT22;11995;50.842;4.456;2022-12-17T06:48:07;-4.00;99.90
23637;DHT22;11995;50.842;4.456;2022-12-17T06:50:54;-4.00;99.90
23637;DHT22;11995;50.842;4.456;2022-12-17T06:53:40;-4.00;99.90
23637;DHT22;11995;50.842;4.456;2022-12-17T06:56:26;-4.00;99.90
23637;DHT22;11995;50.842;4.456;2022-12-17T06:59:13;-4.10;99.90
23637;DHT22;11995;50.842;4.456;2022-12-17T07:01:59;-4.00;99.90
23637;DHT22;11995;50.842;4.456;2022-12-17T07:04:45;-4.10;99.90
23637;DHT22;11995;50.842;4.456;2022-12-17T07:07:30;-4.00;99.90
23637;DHT22;11995;50.842;4.456;2022-12-17T07:10:19;-4.00;99.90
23637;DHT22;11995;50.842;4.456;2022-12-17T07:13:07;-4.10;99.90
23637;DHT22;11995;50.842;4.456;2022-12-17T07:15:52;-4.10;99.90
23637;DHT22;11995;50.842;4.456;2022-12-17T07:18:39;-4.00;99.90
23637;DHT22;11995;50.842;4.456;2022-12-17T07:21:24;-4.10;99.90
23637;DHT22;11995;50.842;4.456;2022-12-17T07:24:10;-4.20;99.90
23637;DHT22;11995;50.842;4.456;2022-12-17T07:26:55;-4.10;99.90
23637;DHT22;11995;50.842;4.456;2022-12-17T07:29:41;-4.20;99.90
23637;DHT22;11995;50.842;4.456;2022-12-17T07:32:27;-4.10;99.90
23637;DHT22;11995;50.842;4.456;2022-12-17T07:35:12;-4.00;99.90
23637;DHT22;11995;50.842;4.456;2022-12-17T07:38:03;-4.10;99.90
23637;DHT22;11995;50.842;4.456;2022-12-17T07:40:49;-4.10;99.90
23637;DHT22;11995;50.842;4.456;2022-12-17T07:43:34;-4.10;99.90
23637;DHT22;11995;50.842;4.456;2022-12-17T07:46:20;-4.10;99.90
23637;DHT22;11995;50.842;4.456;2022-12-17T07:49:06;-4.00;99.90
23637;DHT22;11995;50.842;4.456;2022-12-17T07:51:52;-4.00;99.90
23637;DHT22;11995;50.842;4.456;2022-12-17T07:54:37;-4.00;99.90
23637;DHT22;11995;50.842;4.456;2022-12-17T07:57:23;-4.10;99.90
23637;DHT22;11995;50.842;4.456;2022-12-17T08:00:09;-4.00;99.90
23637;DHT22;11995;50.842;4.456;2022-12-17T08:03:00;-4.00;99.90
23637;DHT22;11995;50.842;4.456;2022-12-17T08:05:46;-4.00;99.90
23637;DHT22;11995;50.842;4.456;2022-12-17T08:08:31;-4.00;99.90
23637;DHT22;11995;50.842;4.456;2022-12-17T08:11:19;-3.90;99.90
23637;DHT22;11995;50.842;4.456;2022-12-17T08:14:05;-3.90;99.90
23637;DHT22;11995;50.842;4.456;2022-12-17T08:16:50;-3.80;99.90
23637;DHT22;11995;50.842;4.456;2022-12-17T08:19:28;-3.80;99.90
23637;DHT22;11995;50.842;4.456;2022-12-17T08:22:14;-3.80;99.90
23637;DHT22;11995;50.842;4.456;2022-12-17T08:24:59;-3.70;99.90
23637;DHT22;11995;50.842;4.456;2022-12-17T08:27:45;-3.70;99.90
23637;DHT22;11995;50.842;4.456;2022-12-17T08:30:30;-3.70;99.90
23637;DHT22;11995;50.842;4.456;2022-12-17T08:33:16;-3.70;99.90
23637;DHT22;11995;50.842;4.456;2022-12-17T08:36:01;-3.80;99.90
23637;DHT22;11995;50.842;4.456;2022-12-17T08:38:50;-3.70;99.90
23637;DHT22;11995;50.842;4.456;2022-12-17T08:41:35;-3.70;99.90
23637;DHT22;11995;50.842;4.456;2022-12-17T08:44:21;-3.60;99.90
23637;DHT22;11995;50.842;4.456;2022-12-17T08:47:07;-3.40;99.90
23637;DHT22;11995;50.842;4.456;2022-12-17T08:49:52;-3.30;99.90
23637;DHT22;11995;50.842;4.456;2022-12-17T08:52:38;-3.30;99.90
23637;DHT22;11995;50.842;4.456;2022-12-17T08:55:23;-3.20;99.90
23637;DHT22;11995;50.842;4.456;2022-12-17T08:58:08;-3.20;99.90
23637;DHT22;11995;50.842;4.456;2022-12-17T09:00:59;-3.10;99.90
23637;DHT22;11995;50.842;4.456;2022-12-17T09:03:46;-3.00;99.90
23637;DHT22;11995;50.842;4.456;2022-12-17T09:06:33;-3.10;99.90
23637;DHT22;11995;50.842;4.456;2022-12-17T09:09:18;-3.10;99.90
23637;DHT22;11995;50.842;4.456;2022-12-17T09:12:03;-2.90;99.90
23637;DHT22;11995;50.842;4.456;2022-12-17T09:14:49;-2.70;99.90
23637;DHT22;11995;50.842;4.456;2022-12-17T09:17:34;-2.70;99.90
23637;DHT22;11995;50.842;4.456;2022-12-17T09:20:20;-2.60;99.90
23637;DHT22;11995;50.842;4.456;2022-12-17T09:23:05;-2.50;99.90
23637;DHT22;11995;50.842;4.456;2022-12-17T09:25:56;-2.40;99.90
23637;DHT22;11995;50.842;4.456;2022-12-17T09:28:42;-2.30;99.90
23637;DHT22;11995;50.842;4.456;2022-12-17T09:31:27;-2.30;99.90
23637;DHT22;11995;50.842;4.456;2022-12-17T09:34:13;-2.20;99.90
23637;DHT22;11995;50.842;4.456;2022-12-17T09:36:59;-2.10;99.90
23637;DHT22;11995;50.842;4.456;2022-12-17T09:39:45;-2.00;99.90
23637;DHT22;11995;50.842;4.456;2022-12-17T09:42:48;-2.00;99.90
23637;DHT22;11995;50.842;4.456;2022-12-17T09:45:45;-2.20;99.90
23637;DHT22;11995;50.842;4.456;2022-12-17T09:51:29;-1.70;99.90
23637;DHT22;11995;50.842;4.456;2022-12-17T09:54:22;-1.60;99.90
23637;DHT22;11995;50.842;4.456;2022-12-17T09:57:09;-1.70;99.90
23637;DHT22;11995;50.842;4.456;2022-12-17T09:59:55;-1.70;99.90
23637;DHT22;11995;50.842;4.456;2022-12-17T10:02:40;-1.70;99.90
23637;DHT22;11995;50.842;4.456;2022-12-17T10:05:28;-1.80;99.90
23637;DHT22;11995;50.842;4.456;2022-12-17T10:08:19;-1.60;99.90
23637;DHT22;11995;50.842;4.456;2022-12-17T10:11:20;-1.50;99.90
23637;DHT22;11995;50.842;4.456;2022-12-17T10:14:17;-1.40;99.90
23637;DHT22;11995;50.842;4.456;2022-12-17T10:17:03;-1.40;99.90
23637;DHT22;11995;50.842;4.456;2022-12-17T10:19:52;-1.40;99.90
23637;DHT22;11995;50.842;4.456;2022-12-17T10:22:43;-1.30;99.90
23637;DHT22;11995;50.842;4.456;2022-12-17T10:25:30;-1.20;99.90
23637;DHT22;11995;50.842;4.456;2022-12-17T10:28:19;-1.10;99.90
23637;DHT22;11995;50.842;4.456;2022-12-17T10:31:17;-1.00;99.90
23637;DHT22;11995;50.842;4.456;2022-12-17T10:34:06;-1.00;99.90
23637;DHT22;11995;50.842;4.456;2022-12-17T10:36:53;-1.10;99.90
23637;DHT22;11995;50.842;4.456;2022-12-17T10:39:40;-1.00;99.90
23637;DHT22;11995;50.842;4.456;2022-12-17T10:42:36;-0.80;99.90
23637;DHT22;11995;50.842;4.456;2022-12-17T10:45:17;-0.80;99.90
23637;DHT22;11995;50.842;4.456;2022-12-17T10:48:02;-0.70;99.90
23637;DHT22;11995;50.842;4.456;2022-12-17T10:50:48;-0.70;99.90
23637;DHT22;11995;50.842;4.456;2022-12-17T10:53:33;-0.90;99.90
23637;DHT22;11995;50.842;4.456;2022-12-17T10:56:25;-0.70;99.90
23637;DHT22;11995;50.842;4.456;2022-12-17T10:59:12;-0.50;99.90
23637;DHT22;11995;50.842;4.456;2022-12-17T11:01:58;-0.50;99.90
23637;DHT22;11995;50.842;4.456;2022-12-17T11:04:52;-0.70;99.90
23637;DHT22;11995;50.842;4.456;2022-12-17T11:07:41;-0.50;99.90
23637;DHT22;11995;50.842;4.456;2022-12-17T11:10:28;-0.40;99.90
23637;DHT22;11995;50.842;4.456;2022-12-17T11:16:15;-0.20;99.90
23637;DHT22;11995;50.842;4.456;2022-12-17T11:22:10;-0.20;99.90
23637;DHT22;11995;50.842;4.456;2022-12-17T11:25:01;-0.20;99.90
23637;DHT22;11995;50.842;4.456;2022-12-17T11:27:48;-0.10;99.90
23637;DHT22;11995;50.842;4.456;2022-12-17T11:30:20;0.00;99.90
23637;DHT22;11995;50.842;4.456;2022-12-17T11:33:17;0.00;99.90
23637;DHT22;11995;50.842;4.456;2022-12-17T11:36:10;-0.10;99.90
23637;DHT22;11995;50.842;4.456;2022-12-17T11:39:03;0.00;99.90
23637;DHT22;11995;50.842;4.456;2022-12-17T11:41:59;0.20;99.90
23637;DHT22;11995;50.842;4.456;2022-12-17T11:48:03;0.00;99.90
23637;DHT22;11995;50.842;4.456;2022-12-17T11:50:50;0.20;99.90
23637;DHT22;11995;50.842;4.456;2022-12-17T11:56:37;0.00;99.90
23637;DHT22;11995;50.842;4.456;2022-12-17T11:59:26;0.10;99.90
23637;DHT22;11995;50.842;4.456;2022-12-17T12:08:35;0.30;99.90
23637;DHT22;11995;50.842;4.456;2022-12-17T12:17:37;0.30;99.90
23637;DHT22;11995;50.842;4.456;2022-12-17T12:20:51;0.20;99.90
23637;DHT22;11995;50.842;4.456;2022-12-17T12:26:50;0.30;99.90
23637;DHT22;11995;50.842;4.456;2022-12-17T12:36:01;0.20;99.90
23637;DHT22;11995;50.842;4.456;2022-12-17T12:38:52;0.30;99.90
23637;DHT22;11995;50.842;4.456;2022-12-17T12:41:54;0.30;99.90
23637;DHT22;11995;50.842;4.456;2022-12-17T12:44:47;0.30;99.90
23637;DHT22;11995;50.842;4.456;2022-12-17T12:47:36;0.60;99.90
23637;DHT22;11995;50.842;4.456;2022-12-17T12:53:27;0.40;99.90
23637;DHT22;11995;50.842;4.456;2022-12-17T12:56:34;0.50;99.90
23637;DHT22;11995;50.842;4.456;2022-12-17T12:59:28;0.60;99.90
23637;DHT22;11995;50.842;4.456;2022-12-17T13:02:29;0.50;99.90
23637;DHT22;11995;50.842;4.456;2022-12-17T13:05:22;0.50;99.90
23637;DHT22;11995;50.842;4.456;2022-12-17T13:10:38;0.60;99.90
23637;DHT22;11995;50.842;4.456;2022-12-17T13:13:50;0.60;99.90
23637;DHT22;11995;50.842;4.456;2022-12-17T13:15:48;0.80;99.90
23637;DHT22;11995;50.842;4.456;2022-12-17T13:21:02;0.70;99.90
23637;DHT22;11995;50.842;4.456;2022-12-17T13:23:29;0.80;99.90
23637;DHT22;11995;50.842;4.456;2022-12-17T13:31:29;0.90;99.90
23637;DHT22;11995;50.842;4.456;2022-12-17T13:34:22;0.80;99.90
23637;DHT22;11995;50.842;4.456;2022-12-17T13:42:33;0.80;99.90
23637;DHT22;11995;50.842;4.456;2022-12-17T13:45:02;0.90;99.90
23637;DHT22;11995;50.842;4.456;2022-12-17T13:47:32;0.90;99.90
23637;DHT22;11995;50.842;4.456;2022-12-17T13:50:13;0.70;99.90
23637;DHT22;11995;50.842;4.456;2022-12-17T13:52:31;0.70;99.90
23637;DHT22;11995;50.842;4.456;2022-12-17T13:55:16;0.80;99.90
23637;DHT22;11995;50.842;4.456;2022-12-17T13:57:43;0.90;99.90
23637;DHT22;11995;50.842;4.456;2022-12-17T14:00:23;0.90;99.90
23637;DHT22;11995;50.842;4.456;2022-12-17T14:02:47;0.90;99.90
23637;DHT22;11995;50.842;4.456;2022-12-17T14:05:26;1.00;99.90
23637;DHT22;11995;50.842;4.456;2022-12-17T14:07:59;1.00;99.90
23637;DHT22;11995;50.842;4.456;2022-12-17T14:10:28;0.90;99.90
23637;DHT22;11995;50.842;4.456;2022-12-17T14:13:06;0.90;99.90
23637;DHT22;11995;50.842;4.456;2022-12-17T14:15:29;0.80;99.90
23637;DHT22;11995;50.842;4.456;2022-12-17T14:17:58;0.70;99.90
23637;DHT22;11995;50.842;4.456;2022-12-17T14:20:31;0.80;99.90
23637;DHT22;11995;50.842;4.456;2022-12-17T14:22:58;0.80;99.90
23637;DHT22;11995;50.842;4.456;2022-12-17T14:25:29;0.70;99.90
23637;DHT22;11995;50.842;4.456;2022-12-17T14:30:40;0.90;99.90
23637;DHT22;11995;50.842;4.456;2022-12-17T14:35:52;0.80;99.90
23637;DHT22;11995;50.842;4.456;2022-12-17T14:38:21;0.80;99.90
23637;DHT22;11995;50.842;4.456;2022-12-17T14:40:49;0.80;99.90
23637;DHT22;11995;50.842;4.456;2022-12-17T14:43:22;0.80;99.90
23637;DHT22;11995;50.842;4.456;2022-12-17T14:45:56;0.70;99.90
23637;DHT22;11995;50.842;4.456;2022-12-17T14:48:42;0.70;99.90
23637;DHT22;11995;50.842;4.456;2022-12-17T14:51:39;0.70;99.90
23637;DHT22;11995;50.842;4.456;2022-12-17T14:54:27;0.60;99.90
23637;DHT22;11995;50.842;4.456;2022-12-17T14:56:57;0.70;99.90
23637;DHT22;11995;50.842;4.456;2022-12-17T14:59:33;0.50;99.90
23637;DHT22;11995;50.842;4.456;2022-12-17T15:04:38;0.30;99.90
23637;DHT22;11995;50.842;4.456;2022-12-17T15:07:07;0.20;99.90
23637;DHT22;11995;50.842;4.456;2022-12-17T15:09:36;0.20;99.90
23637;DHT22;11995;50.842;4.456;2022-12-17T15:12:04;0.30;99.90
23637;DHT22;11995;50.842;4.456;2022-12-17T15:14:32;0.10;99.90
23637;DHT22;11995;50.842;4.456;2022-12-17T15:17:01;0.10;99.90
23637;DHT22;11995;50.842;4.456;2022-12-17T15:19:28;0.10;99.90
23637;DHT22;11995;50.842;4.456;2022-12-17T15:21:56;0.20;99.90
23637;DHT22;11995;50.842;4.456;2022-12-17T15:24:23;0.20;99.90
23637;DHT22;11995;50.842;4.456;2022-12-17T15:26:51;0.10;99.90
23637;DHT22;11995;50.842;4.456;2022-12-17T15:29:20;0.20;99.90
23637;DHT22;11995;50.842;4.456;2022-12-17T15:31:47;0.20;99.90
23637;DHT22;11995;50.842;4.456;2022-12-17T15:34:15;0.10;99.90
23637;DHT22;11995;50.842;4.456;2022-12-17T15:36:43;0.00;99.90
23637;DHT22;11995;50.842;4.456;2022-12-17T15:39:10;0.00;99.90
23637;DHT22;11995;50.842;4.456;2022-12-17T15:41:38;0.10;99.90
23637;DHT22;11995;50.842;4.456;2022-12-17T15:44:23;0.10;99.90
23637;DHT22;11995;50.842;4.456;2022-12-17T15:46:51;0.00;99.90
23637;DHT22;11995;50.842;4.456;2022-12-17T15:49:18;0.00;99.90
23637;DHT22;11995;50.842;4.456;2022-12-17T15:51:46;-0.10;99.90
23637;DHT22;11995;50.842;4.456;2022-12-17T15:54:14;-0.10;99.90
23637;DHT22;11995;50.842;4.456;2022-12-17T15:56:41;-0.10;99.90
23637;DHT22;11995;50.842;4.456;2022-12-17T15:59:09;-0.30;99.90
23637;DHT22;11995;50.842;4.456;2022-12-17T16:01:36;-0.30;99.90
23637;DHT22;11995;50.842;4.456;2022-12-17T16:04:04;-0.30;99.90
23637;DHT22;11995;50.842;4.456;2022-12-17T16:06:32;-0.20;99.90
23637;DHT22;11995;50.842;4.456;2022-12-17T16:09:03;-0.10;99.90
23637;DHT22;11995;50.842;4.456;2022-12-17T16:11:30;-0.20;99.90
23637;DHT22;11995;50.842;4.456;2022-12-17T16:13:58;-0.20;99.90
23637;DHT22;11995;50.842;4.456;2022-12-17T16:16:25;-0.20;99.90
23637;DHT22;11995;50.842;4.456;2022-12-17T16:18:55;-0.20;99.90
23637;DHT22;11995;50.842;4.456;2022-12-17T16:21:23;-0.30;99.90
23637;DHT22;11995;50.842;4.456;2022-12-17T16:23:50;-0.20;99.90
23637;DHT22;11995;50.842;4.456;2022-12-17T16:26:18;-0.30;99.90
23637;DHT22;11995;50.842;4.456;2022-12-17T16:28:46;-0.40;99.90
23637;DHT22;11995;50.842;4.456;2022-12-17T16:31:14;-0.40;99.90
23637;DHT22;11995;50.842;4.456;2022-12-17T16:33:43;-0.40;99.90
23637;DHT22;11995;50.842;4.456;2022-12-17T16:36:14;-0.40;99.90
23637;DHT22;11995;50.842;4.456;2022-12-17T16:38:44;-0.50;99.90
23637;DHT22;11995;50.842;4.456;2022-12-17T16:41:13;-0.60;99.90
23637;DHT22;11995;50.842;4.456;2022-12-17T16:43:40;-0.60;99.90
23637;DHT22;11995;50.842;4.456;2022-12-17T16:46:30;-0.70;99.90
23637;DHT22;11995;50.842;4.456;2022-12-17T16:49:03;-0.70;99.90
23637;DHT22;11995;50.842;4.456;2022-12-17T16:51:31;-0.70;99.90
23637;DHT22;11995;50.842;4.456;2022-12-17T16:53:59;-0.70;99.90
23637;DHT22;11995;50.842;4.456;2022-12-17T16:56:28;-0.80;99.90
23637;DHT22;11995;50.842;4.456;2022-12-17T16:58:56;-0.70;99.90
23637;DHT22;11995;50.842;4.456;2022-12-17T17:01:26;-0.80;99.90
23637;DHT22;11995;50.842;4.456;2022-12-17T17:03:54;-0.80;99.90
23637;DHT22;11995;50.842;4.456;2022-12-17T17:06:22;-0.80;99.90
23637;DHT22;11995;50.842;4.456;2022-12-17T17:08:50;-0.90;99.90
23637;DHT22;11995;50.842;4.456;2022-12-17T17:11:20;-1.00;99.90
23637;DHT22;11995;50.842;4.456;2022-12-17T17:13:50;-1.00;99.90
23637;DHT22;11995;50.842;4.456;2022-12-17T17:16:20;-0.90;99.90
23637;DHT22;11995;50.842;4.456;2022-12-17T17:18:49;-0.80;99.90
23637;DHT22;11995;50.842;4.456;2022-12-17T17:21:22;-0.80;99.90
23637;DHT22;11995;50.842;4.456;2022-12-17T17:23:54;-0.70;99.90
23637;DHT22;11995;50.842;4.456;2022-12-17T17:26:21;-0.80;99.90
23637;DHT22;11995;50.842;4.456;2022-12-17T17:28:49;-0.90;99.90
23637;DHT22;11995;50.842;4.456;2022-12-17T17:31:17;-0.90;99.90
23637;DHT22;11995;50.842;4.456;2022-12-17T17:33:47;-1.00;99.90
23637;DHT22;11995;50.842;4.456;2022-12-17T17:36:21;-0.90;99.90
23637;DHT22;11995;50.842;4.456;2022-12-17T17:38:50;-0.90;99.90
23637;DHT22;11995;50.842;4.456;2022-12-17T17:41:20;-0.90;99.90
23637;DHT22;11995;50.842;4.456;2022-12-17T17:43:57;-0.90;99.90
23637;DHT22;11995;50.842;4.456;2022-12-17T17:46:25;-0.90;99.90
23637;DHT22;11995;50.842;4.456;2022-12-17T17:48:56;-0.80;99.90
23637;DHT22;11995;50.842;4.456;2022-12-17T17:51:29;-0.80;99.90
23637;DHT22;11995;50.842;4.456;2022-12-17T17:53:58;-0.80;99.90
23637;DHT22;11995;50.842;4.456;2022-12-17T17:56:29;-1.00;99.90
23637;DHT22;11995;50.842;4.456;2022-12-17T17:59:07;-0.90;99.90
23637;DHT22;11995;50.842;4.456;2022-12-17T18:01:36;-0.90;99.90
23637;DHT22;11995;50.842;4.456;2022-12-17T18:04:06;-0.90;99.90
23637;DHT22;11995;50.842;4.456;2022-12-17T18:06:36;-1.00;99.90
23637;DHT22;11995;50.842;4.456;2022-12-17T18:09:05;-1.00;99.90
23637;DHT22;11995;50.842;4.456;2022-12-17T18:11:34;-0.90;99.90
23637;DHT22;11995;50.842;4.456;2022-12-17T18:14:01;-1.00;99.90
23637;DHT22;11995;50.842;4.456;2022-12-17T18:16:35;-1.00;99.90
23637;DHT22;11995;50.842;4.456;2022-12-17T18:19:03;-1.10;99.90